Happy Valley, North Carolina
Current Conditions -  °F | °C
As of 5:55 AM on Thursday 23 Oct 2014 (Local Time) from KMRN Reporting Station
Clear Clear  
Wind Chill: 33°   Ceiling: Unl
Heat Index: 33°   Visibility: 7mi
Dew Point: 33°   Wind: 0mph
Humidity: 100%   Direction: NA
Pressure: 30.14"   Gusts: NA
Location:  35.9886°N, 81.5588°W
Report Text: KMRN 230955Z AUTO 00000KT 7SM CLR 00/00 A3014 RMK AO2 T00040004
Loading
Personal Weather Stations






























Interactive Weather Map
Tropical Storm Tracking
New forecast layout! Learn more

10-Day Weather Forecast

Advertisements
Track Severe Weather on mobile